Time;durP1;ratioP1;P1;durP2;ratioP2;P2;SDS_P1;SDS_P2;PMS_P1;PMS_P2;Temp;Humidity;BMP_temperature;BMP_pressure;BME280_temperature;BME280_humidity;BME280_pressure;Samples;Min_cycle;Max_cycle;Signal;HPM_P1;HPM_P2
2022/04/08 00:01:11;;;;;;;5.32;0.73;;;6.60;99.90;;;;;;4988037;28;20097;-73
2022/04/08 00:03:37;;;;;;;6.88;1.67;;;6.60;99.90;;;;;;4971931;28;20034;-73
2022/04/08 00:06:03;;;;;;;5.68;0.85;;;6.50;99.90;;;;;;5004332;28;20072;-71
2022/04/08 00:08:28;;;;;;;4.65;0.70;;;6.50;99.90;;;;;;4972141;28;20057;-72
2022/04/08 00:10:54;;;;;;;1.88;0.85;;;6.50;99.90;;;;;;4972131;28;20031;-72
2022/04/08 00:13:20;;;;;;;4.43;0.75;;;6.50;99.90;;;;;;5003734;28;20022;-74
2022/04/08 00:15:46;;;;;;;5.28;0.90;;;6.50;99.90;;;;;;4988097;28;20238;-72
2022/04/08 00:18:12;;;;;;;11.25;2.15;;;6.40;99.90;;;;;;5004512;28;20022;-74
2022/04/08 00:20:38;;;;;;;7.45;1.00;;;6.40;99.90;;;;;;4988050;28;20081;-75
2022/04/08 00:23:04;;;;;;;6.50;0.98;;;6.40;99.90;;;;;;5003727;28;20330;-74
2022/04/08 00:25:31;;;;;;;0.50;0.50;;;6.30;99.90;;;;;;5003877;28;20068;-73
2022/04/08 00:27:57;;;;;;;6.47;1.15;;;6.30;99.90;;;;;;5004470;28;20022;-74
2022/04/08 00:30:22;;;;;;;6.60;1.42;;;6.30;99.90;;;;;;4987238;28;20034;-73
2022/04/08 00:32:50;;;;;;;2.90;0.80;;;6.40;99.90;;;;;;5002270;28;20069;-73
2022/04/08 00:35:16;;;;;;;6.03;0.90;;;6.30;99.90;;;;;;5019389;28;20088;-74
2022/04/08 00:37:41;;;;;;;4.85;0.90;;;6.30;99.90;;;;;;5007067;28;20263;-75
2022/04/08 00:40:09;;;;;;;5.28;1.48;;;6.30;99.90;;;;;;5023652;28;20025;-74
2022/04/08 00:42:37;;;;;;;7.20;1.10;;;6.30;99.90;;;;;;5024562;28;20198;-74
2022/04/08 00:45:05;;;;;;;7.28;0.80;;;6.30;99.90;;;;;;5006553;28;20026;-73
2022/04/08 00:47:35;;;;;;;5.65;1.10;;;6.20;99.90;;;;;;5003505;28;20022;-72
2022/04/08 00:50:01;;;;;;;3.55;0.85;;;6.20;99.90;;;;;;4972340;28;20077;-72
2022/04/08 00:52:27;;;;;;;2.92;0.85;;;6.10;99.90;;;;;;5004454;28;20089;-72
2022/04/08 00:54:53;;;;;;;4.97;0.85;;;6.00;99.90;;;;;;5019992;28;20116;-72
2022/04/08 00:57:19;;;;;;;5.13;0.98;;;5.90;99.90;;;;;;4992540;28;20301;-74
2022/04/08 00:59:45;;;;;;;5.53;1.20;;;5.80;99.90;;;;;;5022947;28;20046;-72
2022/04/08 01:02:11;;;;;;;11.95;1.63;;;5.70;99.90;;;;;;5006658;28;20332;-74
2022/04/08 01:04:36;;;;;;;3.85;0.90;;;5.70;99.90;;;;;;5006949;28;20237;-72
2022/04/08 01:07:03;;;;;;;7.22;1.75;;;5.70;99.90;;;;;;5023051;28;20051;-73
2022/04/08 01:09:29;;;;;;;6.50;1.30;;;5.60;99.90;;;;;;5022772;28;20022;-73
2022/04/08 01:11:55;;;;;;;6.88;1.20;;;5.50;99.90;;;;;;5023127;28;20022;-74
2022/04/08 01:14:21;;;;;;;6.68;1.15;;;5.40;99.90;;;;;;5006194;28;20029;-73
2022/04/08 01:16:47;;;;;;;7.15;1.13;;;5.30;99.90;;;;;;5022790;28;20096;-73
2022/04/08 01:19:12;;;;;;;7.47;1.10;;;5.30;99.90;;;;;;5023076;28;20343;-73
2022/04/08 01:21:38;;;;;;;10.15;1.20;;;5.30;99.90;;;;;;5022518;28;20053;-73
2022/04/08 01:24:07;;;;;;;6.28;0.88;;;5.20;99.90;;;;;;5022650;28;20332;-72
2022/04/08 01:26:33;;;;;;;5.50;1.30;;;5.20;99.90;;;;;;5006853;28;20280;-73
2022/04/08 01:28:59;;;;;;;6.53;1.10;;;5.30;99.90;;;;;;5023017;28;20025;-72
2022/04/08 01:31:24;;;;;;;8.60;1.60;;;5.30;99.90;;;;;;5022611;28;20030;-74
2022/04/08 01:33:52;;;;;;;5.40;1.95;;;5.30;99.90;;;;;;5021791;28;20037;-73
2022/04/08 01:36:18;;;;;;;5.00;1.60;;;5.20;99.90;;;;;;5026456;28;20026;-73
2022/04/08 01:38:44;;;;;;;3.08;1.00;;;5.20;99.90;;;;;;4994542;28;20094;-74
2022/04/08 01:41:09;;;;;;;5.28;1.00;;;5.30;99.90;;;;;;5010411;28;20026;-73
2022/04/08 01:43:35;;;;;;;7.32;0.90;;;5.30;99.90;;;;;;5010000;28;20026;-72
2022/04/08 01:46:01;;;;;;;7.35;1.20;;;5.30;99.90;;;;;;4994120;28;20022;-72
2022/04/08 01:48:26;;;;;;;9.43;1.35;;;5.40;99.90;;;;;;5026155;28;20061;-72
2022/04/08 01:50:52;;;;;;;9.98;1.30;;;5.40;99.90;;;;;;5010417;28;20308;-73
2022/04/08 01:53:18;;;;;;;4.43;1.05;;;5.30;99.90;;;;;;4993926;28;20088;-72
2022/04/08 01:55:44;;;;;;;4.32;0.95;;;5.20;99.90;;;;;;5026586;28;20029;-73
2022/04/08 01:58:10;;;;;;;8.00;1.65;;;5.20;99.90;;;;;;5014150;28;20209;-73
2022/04/08 02:00:37;;;;;;;6.47;1.50;;;5.10;99.90;;;;;;5007957;28;20019;-72
2022/04/08 02:03:03;;;;;;;4.80;1.65;;;5.00;99.90;;;;;;5007863;28;20027;-74
2022/04/08 02:05:29;;;;;;;2.60;1.40;;;4.90;99.90;;;;;;5006536;28;20210;-74
2022/04/08 02:07:54;;;;;;;9.52;1.73;;;4.90;99.90;;;;;;5006706;28;20026;-73
2022/04/08 02:10:21;;;;;;;5.93;1.85;;;4.80;99.90;;;;;;5007673;28;20034;-74
2022/04/08 02:12:47;;;;;;;6.18;1.33;;;4.80;99.90;;;;;;4990281;28;20127;-74
2022/04/08 02:15:12;;;;;;;4.07;1.38;;;4.70;99.90;;;;;;4989930;28;20023;-73
2022/04/08 02:17:38;;;;;;;4.95;1.58;;;4.70;99.90;;;;;;5006143;28;20409;-74
2022/04/08 02:20:08;;;;;;;5.72;2.22;;;4.70;99.90;;;;;;5006490;28;20023;-73
2022/04/08 02:22:35;;;;;;;5.47;2.15;;;4.80;99.90;;;;;;5006523;28;20042;-74
2022/04/08 02:25:02;;;;;;;9.25;1.60;;;4.80;99.90;;;;;;5006047;28;20257;-72
2022/04/08 02:27:29;;;;;;;9.13;2.08;;;4.90;99.90;;;;;;5006111;28;20117;-72
2022/04/08 02:29:58;;;;;;;10.40;2.30;;;4.80;99.90;;;;;;5005876;28;20037;-73
2022/04/08 02:32:24;;;;;;;7.65;1.95;;;4.90;99.90;;;;;;5007374;28;20022;-74
2022/04/08 02:34:51;;;;;;;8.85;2.22;;;4.80;99.90;;;;;;4988351;28;20034;-73
2022/04/08 02:37:17;;;;;;;6.40;1.70;;;4.80;99.90;;;;;;4990202;28;20073;-72
2022/04/08 02:39:43;;;;;;;10.13;2.30;;;4.80;99.90;;;;;;5006303;28;20026;-73
2022/04/08 02:42:09;;;;;;;7.18;1.73;;;4.80;99.90;;;;;;4989683;28;20049;-74
2022/04/08 02:44:35;;;;;;;9.02;2.35;;;4.80;99.90;;;;;;5005448;28;20022;-74
2022/04/08 02:47:00;;;;;;;5.05;1.23;;;4.80;99.90;;;;;;5016341;28;20026;-74
2022/04/08 02:49:26;;;;;;;3.30;1.35;;;4.90;99.90;;;;;;5025101;28;20066;-72
2022/04/08 02:51:53;;;;;;;8.52;1.48;;;4.90;99.90;;;;;;5009285;28;20033;-73
2022/04/08 02:54:18;;;;;;;4.78;1.40;;;5.00;99.90;;;;;;5026571;28;20186;-72
2022/04/08 02:56:44;;;;;;;3.70;1.20;;;5.00;99.90;;;;;;5008725;28;20028;-74
2022/04/08 02:59:10;;;;;;;3.60;1.13;;;5.00;99.90;;;;;;5007133;28;20081;-73
2022/04/08 03:01:36;;;;;;;5.45;1.55;;;4.90;99.90;;;;;;5005771;28;20029;-73
2022/04/08 03:04:02;;;;;;;5.95;1.35;;;4.90;99.90;;;;;;5006796;28;20026;-73
2022/04/08 03:06:28;;;;;;;5.63;1.27;;;4.80;99.90;;;;;;5006613;28;20049;-72
2022/04/08 03:08:53;;;;;;;11.40;1.92;;;4.90;99.90;;;;;;5005640;28;20026;-73
2022/04/08 03:11:19;;;;;;;10.98;1.55;;;4.80;99.90;;;;;;5006461;28;20038;-74
2022/04/08 03:13:45;;;;;;;6.38;1.58;;;4.80;99.90;;;;;;5004902;28;20030;-73
2022/04/08 03:16:11;;;;;;;5.93;1.55;;;4.90;99.90;;;;;;5005540;28;20053;-73
2022/04/08 03:18:36;;;;;;;9.00;1.55;;;4.80;99.90;;;;;;5006492;28;20033;-74
2022/04/08 03:21:02;;;;;;;5.07;1.25;;;4.80;99.90;;;;;;5005435;28;20026;-72
2022/04/08 03:23:28;;;;;;;7.18;2.40;;;4.80;99.90;;;;;;5005406;28;20023;-74
2022/04/08 03:25:54;;;;;;;6.18;1.63;;;4.80;99.90;;;;;;5005124;28;20018;-73
2022/04/08 03:28:19;;;;;;;9.25;1.70;;;4.80;99.90;;;;;;5004996;28;20030;-74
2022/04/08 03:30:46;;;;;;;8.23;1.25;;;4.90;99.90;;;;;;5006323;28;20022;-74
2022/04/08 03:33:12;;;;;;;5.95;1.38;;;4.90;99.90;;;;;;5006036;28;20064;-73
2022/04/08 03:35:37;;;;;;;4.65;1.20;;;4.90;99.90;;;;;;5002527;28;20045;-73
2022/04/08 03:38:04;;;;;;;6.35;1.35;;;4.90;99.90;;;;;;5004858;28;20301;-73
2022/04/08 03:40:31;;;;;;;5.03;1.02;;;4.90;99.90;;;;;;5005072;28;20050;-73
2022/04/08 03:42:56;;;;;;;4.10;1.13;;;5.00;99.90;;;;;;5004468;28;20022;-74
2022/04/08 03:45:22;;;;;;;6.22;1.17;;;5.00;99.90;;;;;;5004439;28;20049;-72
2022/04/08 03:47:48;;;;;;;8.10;1.33;;;5.00;99.90;;;;;;5005117;28;20161;-74
2022/04/08 03:50:14;;;;;;;6.45;1.15;;;5.00;99.90;;;;;;5007690;28;20036;-74
2022/04/08 03:52:40;;;;;;;4.35;1.25;;;5.00;99.90;;;;;;5025305;28;20065;-74
2022/04/08 03:55:06;;;;;;;5.72;1.15;;;5.00;99.90;;;;;;5007846;28;20212;-73
2022/04/08 03:57:32;;;;;;;6.43;2.30;;;5.00;99.90;;;;;;5023412;28;20305;-73
2022/04/08 03:59:58;;;;;;;3.78;1.55;;;5.00;99.90;;;;;;5024134;28;20045;-74
2022/04/08 04:02:24;;;;;;;7.95;2.83;;;5.00;99.90;;;;;;5024083;28;20029;-74
2022/04/08 04:04:52;;;;;;;4.78;1.50;;;5.00;99.90;;;;;;5024071;28;20076;-73
2022/04/08 04:07:17;;;;;;;5.13;1.42;;;5.00;99.90;;;;;;5023981;28;20198;-73
2022/04/08 04:09:44;;;;;;;3.65;1.50;;;5.00;99.90;;;;;;5007178;28;20044;-74
2022/04/08 04:12:10;;;;;;;9.68;1.10;;;5.00;99.90;;;;;;5007869;28;20026;-74
2022/04/08 04:14:36;;;;;;;3.83;1.30;;;5.00;99.90;;;;;;5023279;28;20021;-73
2022/04/08 04:17:03;;;;;;;6.63;1.40;;;5.10;99.90;;;;;;5007711;28;20022;-73
2022/04/08 04:19:28;;;;;;;4.00;1.48;;;5.10;99.90;;;;;;5023564;28;20323;-73
2022/04/08 04:21:54;;;;;;;10.27;1.70;;;5.10;99.90;;;;;;5007815;28;20025;-74
2022/04/08 04:24:20;;;;;;;11.23;1.70;;;5.10;99.90;;;;;;5023793;28;20018;-73
2022/04/08 04:26:45;;;;;;;6.40;1.33;;;5.10;99.90;;;;;;5023753;28;20052;-73
2022/04/08 04:29:12;;;;;;;7.38;1.58;;;5.10;99.90;;;;;;5023616;28;20073;-73
2022/04/08 04:31:38;;;;;;;4.55;1.55;;;5.20;99.90;;;;;;5023504;28;20036;-75
2022/04/08 04:34:04;;;;;;;9.52;1.60;;;5.20;99.90;;;;;;5017726;28;20029;-74
2022/04/08 04:36:30;;;;;;;6.55;2.20;;;5.20;99.90;;;;;;4985884;28;20221;-73
2022/04/08 04:38:56;;;;;;;11.70;1.60;;;5.20;99.90;;;;;;5004290;28;20068;-73
2022/04/08 04:41:21;;;;;;;11.55;3.05;;;5.30;99.90;;;;;;5003625;28;20037;-73
2022/04/08 04:43:47;;;;;;;8.88;2.10;;;5.40;99.90;;;;;;5003475;28;20026;-73
2022/04/08 04:46:13;;;;;;;11.88;1.73;;;5.30;99.90;;;;;;5004468;28;20018;-73
2022/04/08 04:48:39;;;;;;;7.47;1.55;;;5.30;99.90;;;;;;4986936;28;20062;-73
2022/04/08 04:51:04;;;;;;;6.38;1.55;;;5.30;99.90;;;;;;4987291;28;20034;-72
2022/04/08 04:53:30;;;;;;;9.65;2.00;;;5.30;99.90;;;;;;5003536;28;20026;-75
2022/04/08 04:55:56;;;;;;;8.52;1.95;;;5.20;99.90;;;;;;4987356;28;20030;-73
2022/04/08 04:58:22;;;;;;;11.73;1.80;;;5.20;99.90;;;;;;5017120;28;20022;-74
2022/04/08 05:00:47;;;;;;;16.17;2.40;;;5.10;99.90;;;;;;5023013;28;20026;-73
2022/04/08 05:03:13;;;;;;;13.95;2.15;;;5.10;99.90;;;;;;5006967;28;20025;-73
2022/04/08 05:05:40;;;;;;;7.30;2.17;;;5.10;99.90;;;;;;5006574;28;20025;-73
2022/04/08 05:08:07;;;;;;;7.18;2.13;;;5.00;99.90;;;;;;5023045;28;20305;-74
2022/04/08 05:10:33;;;;;;;5.25;1.55;;;4.90;99.90;;;;;;5022820;28;20026;-74
2022/04/08 05:12:59;;;;;;;6.15;2.03;;;4.90;99.90;;;;;;5022733;28;20073;-74
2022/04/08 05:15:25;;;;;;;7.95;2.47;;;4.90;99.90;;;;;;5023657;28;20247;-74
2022/04/08 05:17:51;;;;;;;12.43;2.03;;;4.90;99.90;;;;;;5022830;28;20100;-75
2022/04/08 05:20:17;;;;;;;12.18;2.00;;;4.90;99.90;;;;;;5022515;28;20022;-73
2022/04/08 05:22:43;;;;;;;6.43;1.50;;;4.90;99.90;;;;;;5006741;28;20045;-74
2022/04/08 05:25:10;;;;;;;8.90;1.80;;;4.90;99.90;;;;;;5006077;28;20026;-73
2022/04/08 05:27:37;;;;;;;8.63;1.80;;;5.00;99.90;;;;;;5006770;28;20050;-73
2022/04/08 05:30:13;;;;;;;4.05;1.52;;;5.00;99.90;;;;;;5022470;28;20313;-73
2022/04/08 05:32:40;;;;;;;10.98;1.70;;;5.00;99.90;;;;;;5022838;28;20045;-74
2022/04/08 05:35:06;;;;;;;7.20;1.75;;;5.00;99.90;;;;;;5008504;28;20137;-74
2022/04/08 05:37:39;;;;;;;8.73;1.70;;;5.00;99.90;;;;;;5002519;28;20026;-73
2022/04/08 05:40:05;;;;;;;9.80;1.95;;;5.00;99.90;;;;;;5004202;28;20084;-74
2022/04/08 05:42:31;;;;;;;7.25;1.63;;;5.00;99.90;;;;;;5002887;28;20018;-74
2022/04/08 05:44:57;;;;;;;10.35;1.73;;;5.10;99.90;;;;;;5004022;28;20065;-74
2022/04/08 05:47:27;;;;;;;10.52;1.95;;;5.20;99.90;;;;;;4999944;28;20068;-73
2022/04/08 05:49:53;;;;;;;5.70;1.85;;;5.20;99.90;;;;;;5021703;28;20070;-75
2022/04/08 05:52:18;;;;;;;10.07;1.58;;;5.20;99.90;;;;;;5005520;28;20022;-75
2022/04/08 05:54:44;;;;;;;11.20;2.88;;;5.20;99.90;;;;;;5005838;28;20289;-73
2022/04/08 05:57:10;;;;;;;7.60;1.38;;;5.30;99.90;;;;;;4989784;28;20057;-74
2022/04/08 05:59:37;;;;;;;2.78;1.40;;;5.20;99.90;;;;;;5005798;28;20213;-73
2022/04/08 06:02:05;;;;;;;13.32;2.08;;;5.30;99.90;;;;;;5022104;28;20021;-74
2022/04/08 06:04:31;;;;;;;8.55;1.90;;;5.30;99.90;;;;;;5021921;28;20026;-74
2022/04/08 06:06:57;;;;;;;7.63;2.67;;;5.30;99.90;;;;;;5022171;28;20251;-73
2022/04/08 06:09:22;;;;;;;6.90;1.77;;;5.40;99.90;;;;;;5005702;28;20053;-73
2022/04/08 06:11:48;;;;;;;5.50;1.70;;;5.30;99.90;;;;;;5021925;28;20229;-73
2022/04/08 06:14:14;;;;;;;6.60;2.15;;;5.30;99.90;;;;;;5021952;28;20022;-73
2022/04/08 06:16:40;;;;;;;6.30;1.80;;;5.30;99.90;;;;;;5022060;28;20064;-74
2022/04/08 06:19:05;;;;;;;10.85;2.00;;;5.40;99.90;;;;;;5005768;28;20022;-73
2022/04/08 06:21:31;;;;;;;10.15;1.98;;;5.40;99.90;;;;;;5025780;28;20374;-75
2022/04/08 06:23:57;;;;;;;6.55;1.83;;;5.40;99.90;;;;;;5026066;28;20056;-74
2022/04/08 06:26:22;;;;;;;7.55;1.92;;;5.40;99.90;;;;;;5025708;28;20015;-75
2022/04/08 06:28:48;;;;;;;16.52;2.47;;;5.40;99.90;;;;;;5025875;28;20052;-73
2022/04/08 06:31:14;;;;;;;15.82;2.15;;;5.50;99.90;;;;;;5009253;28;20029;-73
2022/04/08 06:33:41;;;;;;;9.18;1.98;;;5.60;99.90;;;;;;5006815;28;20018;-74
2022/04/08 06:36:08;;;;;;;8.18;1.92;;;5.70;99.90;;;;;;5007226;28;20022;-74
2022/04/08 06:38:33;;;;;;;12.73;1.50;;;5.70;99.90;;;;;;4987506;28;20048;-75
2022/04/08 06:40:59;;;;;;;6.53;1.83;;;5.60;99.90;;;;;;5006318;28;20022;-74
2022/04/08 06:43:24;;;;;;;12.82;2.50;;;5.70;99.90;;;;;;4989436;28;20022;-74
2022/04/08 06:45:50;;;;;;;13.23;2.78;;;5.70;99.90;;;;;;4990940;28;20030;-73
2022/04/08 06:48:16;;;;;;;14.45;2.30;;;5.80;99.90;;;;;;5009103;28;20058;-74
2022/04/08 06:50:42;;;;;;;4.47;2.13;;;6.00;99.90;;;;;;5009192;28;20076;-74
2022/04/08 06:53:08;;;;;;;12.88;2.50;;;6.10;99.90;;;;;;5025418;28;20097;-74
2022/04/08 06:55:33;;;;;;;10.10;2.78;;;6.20;99.90;;;;;;5026691;28;20022;-74
2022/04/08 06:58:02;;;;;;;8.63;2.53;;;6.30;99.90;;;;;;5021832;28;20170;-72
2022/04/08 07:00:28;;;;;;;12.40;2.50;;;6.40;99.90;;;;;;4989766;28;20033;-73
2022/04/08 07:02:54;;;;;;;10.18;2.58;;;6.30;99.90;;;;;;5005541;28;20041;-72
2022/04/08 07:05:20;;;;;;;10.05;2.28;;;6.40;99.90;;;;;;4989461;28;20061;-72
2022/04/08 07:07:46;;;;;;;12.10;2.58;;;6.50;99.90;;;;;;5005576;28;20034;-72
2022/04/08 07:10:13;;;;;;;12.70;2.22;;;6.50;99.90;;;;;;5023721;28;20352;-73
2022/04/08 07:12:38;;;;;;;8.23;2.30;;;6.50;99.90;;;;;;5024229;28;20362;-72
2022/04/08 07:15:06;;;;;;;13.20;2.50;;;6.40;99.90;;;;;;5019352;28;20030;-73
2022/04/08 07:17:34;;;;;;;8.35;2.33;;;6.40;99.90;;;;;;5021659;28;20045;-76
2022/04/08 07:20:01;;;;;;;11.82;2.40;;;6.50;99.90;;;;;;5007591;28;20256;-70
2022/04/08 07:22:29;;;;;;;11.18;2.40;;;6.60;99.90;;;;;;5008167;28;20024;-71
2022/04/08 07:24:55;;;;;;;10.93;2.03;;;6.60;99.90;;;;;;5024708;28;20041;-71
2022/04/08 07:27:21;;;;;;;8.68;2.50;;;6.70;99.90;;;;;;5003533;28;20022;-77
2022/04/08 07:29:48;;;;;;;10.20;2.10;;;6.70;99.90;;;;;;5014445;28;20061;-71
2022/04/08 07:32:20;;;;;;;10.18;2.63;;;6.60;99.90;;;;;;5024264;28;20047;-74
2022/04/08 07:34:50;;;;;;;;;;;6.60;99.90;;;;;;5014257;28;20225;-71
2022/04/08 07:37:31;;;;;;;6.95;1.95;;;6.50;99.90;;;;;;5004762;28;19977;-70
2022/04/08 07:39:58;;;;;;;12.25;2.80;;;6.60;99.90;;;;;;5020640;28;20022;-71
2022/04/08 07:42:24;;;;;;;8.32;2.50;;;6.60;99.90;;;;;;5004678;28;20080;-70
2022/04/08 07:44:50;;;;;;;9.73;2.50;;;6.60;99.90;;;;;;5020508;28;20038;-71
2022/04/08 07:47:18;;;;;;;7.70;2.30;;;6.70;99.90;;;;;;5008223;28;20033;-71
2022/04/08 07:49:44;;;;;;;9.20;2.40;;;6.80;99.90;;;;;;5003799;28;20305;-72
2022/04/08 07:52:09;;;;;;;8.07;2.70;;;7.00;99.90;;;;;;5019659;28;20038;-72
2022/04/08 07:54:35;;;;;;;6.43;2.53;;;7.10;99.90;;;;;;5005356;28;20340;-74
2022/04/08 07:57:02;;;;;;;9.60;2.97;;;7.40;99.90;;;;;;5006977;28;20337;-71
2022/04/08 07:59:27;;;;;;;13.88;3.05;;;7.50;99.90;;;;;;5018597;28;20046;-72
2022/04/08 08:01:53;;;;;;;7.03;2.00;;;7.60;99.90;;;;;;4998368;28;20105;-72
2022/04/08 08:04:19;;;;;;;10.70;3.05;;;7.80;99.90;;;;;;5002806;28;20018;-70
2022/04/08 08:06:45;;;;;;;13.55;2.42;;;7.70;99.90;;;;;;5023238;28;20328;-72
2022/04/08 08:09:11;;;;;;;12.95;2.85;;;7.70;99.90;;;;;;5007473;28;20025;-73
2022/04/08 08:11:37;;;;;;;4.85;2.10;;;7.80;99.90;;;;;;5007226;28;20072;-73
2022/04/08 08:14:03;;;;;;;11.75;3.03;;;7.80;99.90;;;;;;5021055;28;20028;-73
2022/04/08 08:16:29;;;;;;;13.38;3.35;;;7.80;99.90;;;;;;5021312;28;20014;-71
2022/04/08 08:18:56;;;;;;;13.90;3.38;;;7.70;99.90;;;;;;5018351;28;20263;-72
2022/04/08 08:21:23;;;;;;;12.45;3.05;;;7.80;99.90;;;;;;5022925;28;20072;-74
2022/04/08 08:23:50;;;;;;;9.93;3.22;;;7.80;99.90;;;;;;5020649;28;20030;-70
2022/04/08 08:26:15;;;;;;;7.03;2.72;;;8.00;99.90;;;;;;5023995;28;20022;-71
2022/04/08 08:28:41;;;;;;;8.90;2.70;;;8.20;99.90;;;;;;5023642;28;20054;-71
2022/04/08 08:31:07;;;;;;;7.85;2.75;;;8.00;99.90;;;;;;5010609;28;20034;-70
2022/04/08 08:33:33;;;;;;;9.95;2.42;;;8.10;99.90;;;;;;5037212;28;20030;-69
2022/04/08 08:35:58;;;;;;;11.15;2.53;;;8.10;99.90;;;;;;5023087;28;20368;-71
2022/04/08 08:38:24;;;;;;;7.00;1.90;;;8.30;99.90;;;;;;5002928;28;20241;-69
2022/04/08 08:40:50;;;;;;;6.13;1.77;;;8.30;99.90;;;;;;5017369;28;20041;-69
2022/04/08 08:43:18;;;;;;;8.38;2.42;;;8.50;99.90;;;;;;5002026;28;20214;-69
2022/04/08 08:45:47;;;;;;;17.67;3.83;;;8.70;99.90;;;;;;5002919;28;20132;-70
2022/04/08 08:48:14;;;;;;;15.40;2.38;;;8.70;99.70;;;;;;5021895;28;20064;-71
2022/04/08 08:50:45;;;;;;;5.10;2.20;;;8.80;99.70;;;;;;5022608;28;20029;-73
2022/04/08 08:53:15;;;;;;;10.93;2.08;;;8.90;99.40;;;;;;5006159;28;20030;-70
2022/04/08 08:55:41;;;;;;;8.30;2.28;;;8.70;99.60;;;;;;5021471;28;20026;-71
2022/04/08 08:58:08;;;;;;;10.02;1.95;;;8.70;99.20;;;;;;5011127;28;20122;-73
2022/04/08 09:00:35;;;;;;;13.38;2.40;;;8.60;99.40;;;;;;4998569;28;20348;-76
2022/04/08 09:03:03;;;;;;;8.93;2.40;;;8.80;99.50;;;;;;5003802;28;20018;-71
2022/04/08 09:05:29;;;;;;;7.18;2.05;;;9.00;99.50;;;;;;5003147;28;20033;-72
2022/04/08 09:07:58;;;;;;;5.13;2.22;;;9.00;99.00;;;;;;5019813;28;20025;-73
2022/04/08 09:10:30;;;;;;;5.70;1.73;;;9.00;99.00;;;;;;5005774;28;20029;-72
2022/04/08 09:12:57;;;;;;;8.80;2.15;;;8.90;98.30;;;;;;5021674;28;20104;-69
2022/04/08 09:15:23;;;;;;;14.98;2.92;;;8.90;99.30;;;;;;5020132;28;20026;-74
2022/04/08 09:17:50;;;;;;;12.20;3.03;;;8.90;98.90;;;;;;5001945;28;20033;-71
2022/04/08 09:20:15;;;;;;;12.48;3.03;;;8.80;99.00;;;;;;4986572;28;20042;-72
2022/04/08 09:22:43;;;;;;;10.20;2.67;;;8.80;99.10;;;;;;5021511;28;20029;-71
2022/04/08 09:25:11;;;;;;;13.20;3.75;;;9.00;99.20;;;;;;4996708;28;20034;-71
2022/04/08 09:27:39;;;;;;;15.23;4.00;;;9.00;99.10;;;;;;5003470;28;20053;-70
2022/04/08 09:30:07;;;;;;;22.30;4.45;;;9.10;98.70;;;;;;5004459;28;20062;-73
2022/04/08 09:32:33;;;;;;;10.82;4.05;;;9.10;98.70;;;;;;5015624;28;20030;-70
2022/04/08 09:34:59;;;;;;;12.20;3.97;;;9.00;98.80;;;;;;5008197;28;20072;-73
2022/04/08 09:37:25;;;;;;;11.38;3.90;;;9.10;98.70;;;;;;5003362;28;20123;-72
2022/04/08 09:40:01;;;;;;;13.25;4.57;;;9.00;98.50;;;;;;5016996;28;20029;-70
2022/04/08 09:42:44;;;;;;;9.50;3.92;;;9.00;98.80;;;;;;5019503;28;20104;-70
2022/04/08 09:45:10;;;;;;;12.68;3.25;;;9.00;98.90;;;;;;5021387;28;20018;-74
2022/04/08 09:47:38;;;;;;;13.25;3.95;;;9.20;98.10;;;;;;5012204;28;20323;-76
2022/04/08 09:50:05;;;;;;;15.27;4.70;;;9.40;97.80;;;;;;5003378;28;20034;-71
2022/04/08 09:52:32;;;;;;;7.57;2.63;;;9.70;97.20;;;;;;5016836;28;20348;-71
2022/04/08 09:55:00;;;;;;;10.68;2.40;;;9.80;96.50;;;;;;5018212;28;20312;-75
2022/04/08 09:57:32;;;;;;;9.95;2.58;;;10.10;95.80;;;;;;5020907;28;20014;-75
2022/04/08 10:00:00;;;;;;;16.40;2.97;;;10.10;95.00;;;;;;5008237;28;20079;-70
2022/04/08 10:02:28;;;;;;;6.47;2.45;;;10.20;95.30;;;;;;5008606;28;20030;-72
2022/04/08 10:04:55;;;;;;;9.60;2.28;;;10.50;95.90;;;;;;5020403;28;20273;-70
2022/04/08 10:07:22;;;;;;;7.10;1.90;;;10.70;94.60;;;;;;5018270;28;20040;-70
2022/04/08 10:09:58;;;;;;;6.55;1.73;;;10.60;93.00;;;;;;5020144;28;20217;-72
2022/04/08 10:13:04;;;;;;;9.00;1.80;;;10.50;92.90;;;;;;5023866;28;20033;-69
2022/04/08 10:15:37;;;;;;;8.80;1.65;;;10.40;92.50;;;;;;4990253;28;20077;-70
2022/04/08 10:18:04;;;;;;;12.70;2.83;;;10.30;92.50;;;;;;4988518;28;20026;-71
2022/04/08 10:20:32;;;;;;;11.45;2.17;;;10.40;93.70;;;;;;5015776;28;20244;-70
2022/04/08 10:23:16;;;;;;;7.00;1.92;;;10.70;94.10;;;;;;5022422;28;20368;-71
2022/04/08 10:25:48;;;;;;;7.82;1.77;;;10.70;93.50;;;;;;4996064;28;20105;-70
2022/04/08 10:28:13;;;;;;;10.57;1.70;;;10.90;93.30;;;;;;4988953;28;20058;-71
2022/04/08 10:30:48;;;;;;;9.25;1.52;;;11.00;91.80;;;;;;5015772;28;20096;-70
2022/04/08 10:33:24;;;;;;;7.60;1.30;;;11.00;91.30;;;;;;5006749;28;20034;-71
2022/04/08 10:36:01;;;;;;;11.82;1.88;;;11.00;91.30;;;;;;5018966;28;20021;-69
2022/04/08 10:38:36;;;;;;;7.10;1.55;;;11.00;91.00;;;;;;5023197;28;20363;-70
2022/04/08 10:41:02;;;;;;;3.67;1.13;;;11.00;90.90;;;;;;4989239;28;20033;-70
2022/04/08 10:43:28;;;;;;;9.35;1.20;;;11.20;90.20;;;;;;5017497;28;20331;-71
2022/04/08 10:45:56;;;;;;;6.28;1.48;;;11.20;89.90;;;;;;5023159;28;20026;-69
2022/04/08 10:48:23;;;;;;;4.82;1.38;;;11.40;90.40;;;;;;4986045;28;843303;-68
2022/04/08 10:50:50;;;;;;;5.65;1.30;;;11.60;89.20;;;;;;4999188;28;20048;-69
2022/04/08 10:53:22;;;;;;;4.97;1.15;;;11.80;88.30;;;;;;5017261;28;20076;-72
2022/04/08 10:55:54;;;;;;;5.88;1.30;;;12.00;87.20;;;;;;5015555;28;20022;-69
2022/04/08 10:58:44;;;;;;;6.22;1.40;;;12.00;86.80;;;;;;5003823;28;20173;-71
2022/04/08 11:01:14;;;;;;;10.45;1.40;;;11.90;86.10;;;;;;4996045;28;20046;-71
2022/04/08 11:03:45;;;;;;;7.30;1.38;;;11.80;89.80;;;;;;5007947;28;20096;-72
2022/04/08 11:06:13;;;;;;;3.42;1.20;;;11.70;88.10;;;;;;5025513;28;20097;-71
2022/04/08 11:08:39;;;;;;;5.75;1.20;;;11.90;87.20;;;;;;4990685;28;20383;-72
2022/04/08 11:11:05;;;;;;;7.25;1.38;;;11.90;85.20;;;;;;5023438;28;20068;-69
2022/04/08 11:13:30;;;;;;;5.22;1.05;;;12.30;83.70;;;;;;5023254;28;20376;-69
2022/04/08 11:15:57;;;;;;;10.32;2.08;;;12.30;82.90;;;;;;4997352;28;20198;-71
2022/04/08 11:18:25;;;;;;;5.63;1.27;;;12.30;84.70;;;;;;5012666;28;20021;-71
2022/04/08 11:20:50;;;;;;;6.78;1.50;;;12.40;82.90;;;;;;5022495;28;20029;-72
2022/04/08 11:23:33;;;;;;;6.53;1.30;;;12.50;83.70;;;;;;5014845;28;20097;-71
2022/04/08 11:25:58;;;;;;;7.35;1.45;;;12.40;84.50;;;;;;5005177;28;20100;-69
2022/04/08 11:28:25;;;;;;;5.38;1.40;;;12.10;85.60;;;;;;5025313;28;20052;-70
2022/04/08 11:30:58;;;;;;;7.00;1.30;;;12.10;84.80;;;;;;5020672;28;20090;-71
2022/04/08 11:33:25;;;;;;;5.88;1.40;;;12.20;84.40;;;;;;5022132;28;20030;-70
2022/04/08 11:36:00;;;;;;;7.82;1.25;;;12.30;84.10;;;;;;5020151;28;20245;-69
2022/04/08 11:38:30;;;;;;;4.95;1.35;;;12.40;83.90;;;;;;5036269;28;20377;-72
2022/04/08 11:40:56;;;;;;;4.45;1.13;;;12.30;82.50;;;;;;5002563;28;20092;-71
2022/04/08 11:43:23;;;;;;;7.40;1.27;;;12.10;83.10;;;;;;5004701;28;20049;-71
2022/04/08 11:45:51;;;;;;;5.47;1.70;;;12.10;83.10;;;;;;5006490;28;20030;-72
2022/04/08 11:48:19;;;;;;;7.60;1.52;;;12.10;82.70;;;;;;5024389;28;20063;-70
2022/04/08 11:50:46;;;;;;;4.97;1.40;;;12.30;82.40;;;;;;5023239;28;20320;-71
2022/04/08 11:53:19;;;;;;;4.88;1.25;;;12.50;81.40;;;;;;5024257;28;20348;-71
2022/04/08 11:56:02;;;;;;;5.70;1.20;;;12.40;81.60;;;;;;5006396;28;20025;-71
2022/04/08 11:58:29;;;;;;;5.53;1.15;;;12.20;81.00;;;;;;4992394;28;20327;-71
2022/04/08 12:00:56;;;;;;;9.20;1.80;;;12.40;81.80;;;;;;5004793;28;20302;-70
2022/04/08 12:03:23;;;;;;;11.73;1.75;;;12.80;80.90;;;;;;5022887;28;20030;-72
2022/04/08 12:05:50;;;;;;;8.82;1.40;;;12.70;79.80;;;;;;5023220;28;20018;-69
2022/04/08 12:08:18;;;;;;;4.35;1.23;;;12.50;78.20;;;;;;5023138;28;20060;-71
2022/04/08 12:10:44;;;;;;;5.03;1.38;;;12.40;76.30;;;;;;5018768;28;20037;-70
2022/04/08 12:13:19;;;;;;;8.38;1.58;;;12.20;77.90;;;;;;5019097;28;20030;-71
2022/04/08 12:15:48;;;;;;;5.82;1.05;;;12.00;77.60;;;;;;5023008;28;20025;-72
2022/04/08 12:18:24;;;;;;;11.23;1.50;;;11.90;76.90;;;;;;5004377;28;20339;-72
2022/04/08 12:20:54;;;;;;;6.72;1.20;;;11.90;77.30;;;;;;5036357;28;20085;-72
2022/04/08 12:23:22;;;;;;;7.25;1.27;;;12.10;77.80;;;;;;5038047;28;20260;-70
2022/04/08 12:26:03;;;;;;;4.70;1.08;;;12.20;75.80;;;;;;5016418;28;20038;-71
2022/04/08 12:28:31;;;;;;;2.58;0.98;;;12.20;76.20;;;;;;5019188;28;20045;-70
2022/04/08 12:30:57;;;;;;;7.13;1.30;;;12.10;77.10;;;;;;5003211;28;20037;-71
2022/04/08 12:33:23;;;;;;;9.77;1.67;;;12.00;75.80;;;;;;5003600;28;20034;-72
2022/04/08 12:35:49;;;;;;;7.88;1.38;;;12.10;77.90;;;;;;5021237;28;20391;-75
2022/04/08 12:38:19;;;;;;;4.38;1.20;;;12.30;76.50;;;;;;5022479;28;20022;-71
2022/04/08 12:40:46;;;;;;;6.90;1.23;;;12.40;74.80;;;;;;5001872;28;20129;-70
2022/04/08 12:43:12;;;;;;;8.93;1.35;;;12.50;77.30;;;;;;4985253;28;20026;-70
2022/04/08 12:45:38;;;;;;;6.25;1.50;;;12.60;77.10;;;;;;5006507;28;20367;-70
2022/04/08 12:48:05;;;;;;;8.05;1.33;;;12.50;77.90;;;;;;5022416;28;20119;-71
2022/04/08 12:50:32;;;;;;;3.97;1.20;;;12.20;76.60;;;;;;5022330;28;20037;-73
2022/04/08 12:53:00;;;;;;;5.13;1.35;;;12.10;77.20;;;;;;5019630;28;20022;-69